createdAt,value
2023-02-11T00:00:02.703Z,3.83
2023-02-11T00:01:02.663Z,3.94
2023-02-11T00:02:02.648Z,3.99
2023-02-11T00:03:02.605Z,3.92
2023-02-11T00:04:02.552Z,3.94
2023-02-11T00:05:02.571Z,3.84
2023-02-11T00:06:02.501Z,3.92
2023-02-11T00:07:02.456Z,3.84
2023-02-11T00:08:02.402Z,3.84
2023-02-11T00:09:02.367Z,3.84
2023-02-11T00:10:02.324Z,3.86
2023-02-11T00:11:02.350Z,3.87
2023-02-11T00:12:02.252Z,3.88
2023-02-11T00:13:02.205Z,3.88
2023-02-11T00:14:02.219Z,3.86
2023-02-11T00:15:02.142Z,3.84
2023-02-11T00:16:02.107Z,3.91
2023-02-11T00:17:02.175Z,3.88
2023-02-11T00:18:02.028Z,4.01
2023-02-11T00:19:01.986Z,3.96
2023-02-11T00:20:01.978Z,4.01
2023-02-11T00:21:01.908Z,4.04
2023-02-11T00:22:01.875Z,4.06
2023-02-11T00:23:01.897Z,4.06
2023-02-11T00:24:01.806Z,4.08
2023-02-11T00:25:01.772Z,4.12
2023-02-11T00:26:01.729Z,4.22
2023-02-11T00:27:01.678Z,4.16
2023-02-11T00:28:01.659Z,4.22
2023-02-11T00:29:01.672Z,4.34
2023-02-11T00:30:01.571Z,4.26
2023-02-11T00:31:01.647Z,4.30
2023-02-11T00:32:01.532Z,4.35
2023-02-11T00:33:01.452Z,4.31
2023-02-11T00:34:01.422Z,4.38
2023-02-11T00:35:01.446Z,4.35
2023-02-11T00:36:01.333Z,4.40
2023-02-11T00:37:01.308Z,4.38
2023-02-11T00:38:01.257Z,4.49
2023-02-11T00:39:01.237Z,4.41
2023-02-11T00:40:01.186Z,4.31
2023-02-11T00:41:01.234Z,4.44
2023-02-11T00:42:01.110Z,4.38
2023-02-11T00:43:01.079Z,4.44
2023-02-11T00:44:01.109Z,4.41
2023-02-11T00:45:01.001Z,4.41
2023-02-11T00:46:00.971Z,4.48
2023-02-11T00:47:00.925Z,4.49
2023-02-11T00:48:00.883Z,4.56
2023-02-11T00:49:00.852Z,4.52
2023-02-11T00:50:00.890Z,4.56
2023-02-11T00:51:00.777Z,4.58
2023-02-11T00:52:00.750Z,4.62
2023-02-11T00:53:00.701Z,4.56
2023-02-11T00:54:00.661Z,4.59
2023-02-11T00:55:00.711Z,4.62
2023-02-11T00:56:00.587Z,4.60
2023-02-11T00:57:00.579Z,4.52
2023-02-11T00:58:00.523Z,4.63
2023-02-11T00:59:00.478Z,4.63
2023-02-11T01:00:00.434Z,4.66
2023-02-11T01:01:00.516Z,4.73
2023-02-11T01:02:00.367Z,4.71
2023-02-11T01:03:00.325Z,4.71
2023-02-11T01:04:00.287Z,4.82
2023-02-11T01:05:00.333Z,4.68
2023-02-11T01:06:00.224Z,4.73
2023-02-11T01:07:00.246Z,4.70
2023-02-11T01:08:00.145Z,4.68
2023-02-11T01:09:00.114Z,4.71
2023-02-11T01:10:00.094Z,4.75
2023-02-11T01:11:00.029Z,4.78
2023-02-11T01:11:59.992Z,4.77
2023-02-11T01:13:00.016Z,4.93
2023-02-11T01:13:59.923Z,4.89
2023-02-11T01:14:59.887Z,4.87
2023-02-11T01:15:59.856Z,4.86
2023-02-11T01:16:59.807Z,4.80
2023-02-11T01:17:59.781Z,4.93
2023-02-11T01:18:59.813Z,4.94
2023-02-11T01:19:59.701Z,4.90
2023-02-11T01:20:59.662Z,4.89
2023-02-11T01:21:59.625Z,4.92
2023-02-11T01:22:59.581Z,4.89
2023-02-11T01:23:59.550Z,4.97
2023-02-11T01:24:59.581Z,4.96
2023-02-11T01:25:59.468Z,4.94
2023-02-11T01:26:59.441Z,4.97
2023-02-11T01:27:59.456Z,4.96
2023-02-11T01:28:59.376Z,4.99
2023-02-11T01:29:59.336Z,5.04
2023-02-11T01:30:59.386Z,5.02
2023-02-11T01:31:59.291Z,5.00
2023-02-11T01:32:59.243Z,5.02
2023-02-11T01:33:59.178Z,5.11
2023-02-11T01:34:59.134Z,5.10
2023-02-11T01:35:59.122Z,5.10
2023-02-11T01:36:59.125Z,5.23
2023-02-11T01:37:59.038Z,5.17
2023-02-11T01:38:58.991Z,5.17
2023-02-11T01:39:58.961Z,5.17
2023-02-11T01:40:58.919Z,5.23
2023-02-11T01:41:58.899Z,5.23
2023-02-11T01:42:58.908Z,5.18
2023-02-11T01:43:58.806Z,5.28
2023-02-11T01:44:58.848Z,5.23
2023-02-11T01:45:58.833Z,5.18
2023-02-11T01:46:58.693Z,5.18
2023-02-11T01:47:58.656Z,5.17
2023-02-11T01:48:58.709Z,5.28
2023-02-11T01:49:58.579Z,5.23
2023-02-11T01:50:58.606Z,5.29
2023-02-11T01:51:58.506Z,5.28
2023-02-11T01:52:58.470Z,5.32
2023-02-11T01:53:58.444Z,5.33
2023-02-11T01:54:58.398Z,5.30
2023-02-11T01:55:58.362Z,5.30
2023-02-11T01:56:58.376Z,5.36
2023-02-11T01:57:58.286Z,5.36
2023-02-11T01:58:58.249Z,5.39
2023-02-11T01:59:58.235Z,5.36
2023-02-11T02:00:58.195Z,5.44
2023-02-11T02:01:58.189Z,5.47
2023-02-11T02:02:58.162Z,5.46
2023-02-11T02:03:58.131Z,5.50
2023-02-11T02:04:58.031Z,5.46
2023-02-11T02:05:57.994Z,5.50
2023-02-11T02:06:57.969Z,5.56
2023-02-11T02:07:57.931Z,5.61
2023-02-11T02:08:57.937Z,5.53
2023-02-11T02:09:57.841Z,5.47
2023-02-11T02:10:57.803Z,5.54
2023-02-11T02:11:57.767Z,5.53
2023-02-11T02:12:57.732Z,5.64
2023-02-11T02:13:57.696Z,5.62
2023-02-11T02:14:57.729Z,5.66
2023-02-11T02:15:57.630Z,5.59
2023-02-11T02:16:57.593Z,5.68
2023-02-11T02:17:57.549Z,5.72
2023-02-11T02:18:57.515Z,5.66
2023-02-11T02:19:57.471Z,5.69
2023-02-11T02:20:57.495Z,5.68
2023-02-11T02:21:57.488Z,5.65
2023-02-11T02:22:57.355Z,5.69
2023-02-11T02:23:57.317Z,5.69
2023-02-11T02:24:57.286Z,5.68
2023-02-11T02:25:57.247Z,5.66
2023-02-11T02:26:57.208Z,5.66
2023-02-11T02:27:57.346Z,5.66
2023-02-11T02:28:57.143Z,5.62
2023-02-11T02:29:57.098Z,5.68
2023-02-11T02:30:57.138Z,5.64
2023-02-11T02:31:57.031Z,5.75
2023-02-11T02:32:57.239Z,5.62
2023-02-11T02:33:56.955Z,5.71
2023-02-11T02:34:56.922Z,5.72
2023-02-11T02:35:56.881Z,5.73
2023-02-11T02:36:56.838Z,5.73
2023-02-11T02:37:56.809Z,5.71
2023-02-11T02:38:56.838Z,5.82
2023-02-11T02:39:56.731Z,5.79
2023-02-11T02:40:56.691Z,5.75
2023-02-11T02:41:56.656Z,5.73
2023-02-11T02:42:56.661Z,5.76
2023-02-11T02:43:56.648Z,5.82
2023-02-11T02:44:56.582Z,5.66
2023-02-11T02:45:56.514Z,5.71
2023-02-11T02:46:56.555Z,5.68
2023-02-11T02:47:56.443Z,5.71
2023-02-11T02:48:56.471Z,5.72
2023-02-11T02:49:56.362Z,5.80
2023-02-11T02:50:56.325Z,5.72
2023-02-11T02:51:56.292Z,5.69
2023-02-11T02:52:56.249Z,5.64
2023-02-11T02:53:56.285Z,5.65
2023-02-11T02:54:56.188Z,5.68
2023-02-11T02:55:56.154Z,5.64
2023-02-11T02:56:56.122Z,5.73
2023-02-11T02:57:56.076Z,5.65
2023-02-11T02:58:56.034Z,5.66
2023-02-11T02:59:56.057Z,5.71
2023-02-11T03:00:55.988Z,5.65
2023-02-11T03:01:55.930Z,5.64
2023-02-11T03:02:55.890Z,5.62
2023-02-11T03:03:55.920Z,5.79
2023-02-11T03:04:55.886Z,5.76
2023-02-11T03:05:55.780Z,5.73
2023-02-11T03:06:55.746Z,5.68
2023-02-11T03:07:55.702Z,5.75
2023-02-11T03:08:55.678Z,5.68
2023-02-11T03:09:55.627Z,5.71
2023-02-11T03:10:55.683Z,5.72
2023-02-11T03:11:55.553Z,5.80
2023-02-11T03:12:55.519Z,5.76
2023-02-11T03:13:55.494Z,5.79
2023-02-11T03:14:55.449Z,5.76
2023-02-11T03:15:55.542Z,5.73
2023-02-11T03:16:55.374Z,5.72
2023-02-11T03:17:55.345Z,5.73
2023-02-11T03:18:55.303Z,5.71
2023-02-11T03:19:55.261Z,5.76
2023-02-11T03:20:55.313Z,5.82
2023-02-11T03:21:55.192Z,5.83
2023-02-11T03:22:55.144Z,5.76
2023-02-11T03:23:55.152Z,5.76
2023-02-11T03:24:55.089Z,5.73
2023-02-11T03:25:55.118Z,5.75
2023-02-11T03:26:55.012Z,5.71
2023-02-11T03:27:55.014Z,5.80
2023-02-11T03:28:54.941Z,5.72
2023-02-11T03:29:54.903Z,5.80
2023-02-11T03:30:54.875Z,5.79
2023-02-11T03:31:54.942Z,5.83
2023-02-11T03:32:54.802Z,5.73
2023-02-11T03:33:54.752Z,5.71
2023-02-11T03:34:54.710Z,5.82
2023-02-11T03:35:54.674Z,5.80
2023-02-11T03:36:54.716Z,5.79
2023-02-11T03:37:54.621Z,5.76
2023-02-11T03:38:54.567Z,5.75
2023-02-11T03:39:54.538Z,5.80
2023-02-11T03:40:54.491Z,5.79
2023-02-11T03:41:54.452Z,5.86
2023-02-11T03:42:54.541Z,5.87
2023-02-11T03:43:55.173Z,5.82
2023-02-11T03:44:54.363Z,5.87
2023-02-11T03:45:54.690Z,5.82
2023-02-11T03:46:54.296Z,5.91
2023-02-11T03:47:55.161Z,5.86
2023-02-11T03:48:54.200Z,5.87
2023-02-11T03:49:54.161Z,5.89
2023-02-11T03:50:54.132Z,5.90
2023-02-11T03:51:54.096Z,5.79
2023-02-11T03:52:54.120Z,5.82
2023-02-11T03:53:54.028Z,5.83
2023-02-11T03:54:53.988Z,5.87
2023-02-11T03:55:53.951Z,5.90
2023-02-11T03:56:53.927Z,5.93
2023-02-11T03:57:53.875Z,5.90
2023-02-11T03:58:53.880Z,5.91
2023-02-11T03:59:53.808Z,5.94
2023-02-11T04:00:53.784Z,5.90
2023-02-11T04:01:53.727Z,5.97
2023-02-11T04:02:54.717Z,5.94
2023-02-11T04:03:53.688Z,6.01
2023-02-11T04:04:53.673Z,5.99
2023-02-11T04:05:53.583Z,5.91
2023-02-11T04:06:53.545Z,5.93
2023-02-11T04:07:53.502Z,5.94
2023-02-11T04:08:53.524Z,5.86
2023-02-11T04:09:53.429Z,5.94
2023-02-11T04:10:53.397Z,5.98
2023-02-11T04:11:53.361Z,5.93
2023-02-11T04:12:53.322Z,5.94
2023-02-11T04:13:53.339Z,5.94
2023-02-11T04:14:53.254Z,5.99
2023-02-11T04:15:53.624Z,5.94
2023-02-11T04:16:53.175Z,5.93
2023-02-11T04:17:53.139Z,5.97
2023-02-11T04:18:53.164Z,5.98
2023-02-11T04:19:53.066Z,5.91
2023-02-11T04:20:53.027Z,5.94
2023-02-11T04:21:52.993Z,5.99
2023-02-11T04:22:52.960Z,5.97
2023-02-11T04:23:52.974Z,5.98
2023-02-11T04:24:52.877Z,5.97
2023-02-11T04:25:53.087Z,5.91
2023-02-11T04:26:52.805Z,5.91
2023-02-11T04:27:52.773Z,5.94
2023-02-11T04:28:52.803Z,5.84
2023-02-11T04:29:52.700Z,5.87
2023-02-11T04:30:52.710Z,5.91
2023-02-11T04:31:52.713Z,5.86
2023-02-11T04:32:52.593Z,5.98
2023-02-11T04:33:52.558Z,5.91
2023-02-11T04:34:52.589Z,6.01
2023-02-11T04:35:52.698Z,5.94
2023-02-11T04:36:52.448Z,5.93
2023-02-11T04:37:52.410Z,5.94
2023-02-11T04:38:52.383Z,5.99
2023-02-11T04:39:52.393Z,5.98
2023-02-11T04:40:52.293Z,5.98
2023-02-11T04:41:52.259Z,5.93
2023-02-11T04:42:52.223Z,5.98
2023-02-11T04:43:52.196Z,6.04
2023-02-11T04:44:52.170Z,6.04
2023-02-11T04:45:52.552Z,6.05
2023-02-11T04:46:52.075Z,6.02
2023-02-11T04:47:52.048Z,6.04
2023-02-11T04:48:52.015Z,6.01
2023-02-11T04:49:52.028Z,6.05
2023-02-11T04:50:51.928Z,6.09
2023-02-11T04:51:51.897Z,6.04
2023-02-11T04:52:51.882Z,5.99
2023-02-11T04:53:51.830Z,6.04
2023-02-11T04:54:51.832Z,6.02
2023-02-11T04:55:52.202Z,6.04
2023-02-11T04:56:51.717Z,5.98
2023-02-11T04:57:51.678Z,6.01
2023-02-11T04:58:51.643Z,5.99
2023-02-11T04:59:51.667Z,6.05
2023-02-11T05:00:51.597Z,6.04
2023-02-11T05:01:51.533Z,5.99
2023-02-11T05:02:51.488Z,5.99
2023-02-11T05:03:51.490Z,5.99
2023-02-11T05:04:51.420Z,6.07
2023-02-11T05:05:51.732Z,5.91
2023-02-11T05:06:51.360Z,5.97
2023-02-11T05:07:51.305Z,5.97
2023-02-11T05:08:51.268Z,5.98
2023-02-11T05:09:51.240Z,5.93
2023-02-11T05:10:51.207Z,6.07
2023-02-11T05:11:51.219Z,5.98
2023-02-11T05:12:51.410Z,5.89
2023-02-11T05:13:51.098Z,6.02
2023-02-11T05:14:51.052Z,5.91
2023-02-11T05:15:51.346Z,6.09
2023-02-11T05:16:51.013Z,6.05
2023-02-11T05:17:50.997Z,5.97
2023-02-11T05:18:52.517Z,5.93
2023-02-11T05:19:50.877Z,6.02
2023-02-11T05:20:50.868Z,6.02
2023-02-11T05:22:02.165Z,5.93
2023-02-11T05:22:50.759Z,5.98
2023-02-11T05:23:50.786Z,6.07
2023-02-11T05:24:50.692Z,5.98
2023-02-11T05:25:50.982Z,5.91
2023-02-11T05:26:50.610Z,6.02
2023-02-11T05:27:50.647Z,5.90
2023-02-11T05:28:50.538Z,5.93
2023-02-11T05:29:50.507Z,6.05
2023-02-11T05:30:50.523Z,5.90
2023-02-11T05:31:50.431Z,6.07
2023-02-11T05:32:50.398Z,6.01
2023-02-11T05:33:50.414Z,5.99
2023-02-11T05:34:50.317Z,6.01
2023-02-11T05:35:50.570Z,5.94
2023-02-11T05:36:50.255Z,6.01
2023-02-11T05:37:50.214Z,6.01
2023-02-11T05:38:50.244Z,5.99
2023-02-11T05:39:50.144Z,6.04
2023-02-11T05:40:50.097Z,6.02
2023-02-11T05:41:50.075Z,5.97
2023-02-11T05:42:50.051Z,5.97
2023-02-11T05:43:49.999Z,5.99
2023-02-11T05:44:50.779Z,6.08
2023-02-11T05:45:50.399Z,5.99
2023-02-11T05:46:49.892Z,6.01
2023-02-11T05:47:49.846Z,6.11
2023-02-11T05:48:49.890Z,5.98
2023-02-11T05:49:49.775Z,6.04
2023-02-11T05:50:49.735Z,6.07
2023-02-11T05:51:49.701Z,6.02
2023-02-11T05:52:49.660Z,5.97
2023-02-11T05:53:49.622Z,5.99
2023-02-11T05:54:49.647Z,6.04
2023-02-11T05:55:50.025Z,6.07
2023-02-11T05:56:49.523Z,6.08
2023-02-11T05:57:49.500Z,6.12
2023-02-11T05:58:49.445Z,6.11
2023-02-11T05:59:49.474Z,6.12
2023-02-11T06:00:49.378Z,6.07
2023-02-11T06:01:49.344Z,6.16
2023-02-11T06:02:49.320Z,6.11
2023-02-11T06:03:49.304Z,6.20
2023-02-11T06:04:49.289Z,6.19
2023-02-11T06:05:49.535Z,6.24
2023-02-11T06:06:49.148Z,6.16
2023-02-11T06:07:49.116Z,6.08
2023-02-11T06:08:49.077Z,6.22
2023-02-11T06:09:49.108Z,6.11
2023-02-11T06:10:49.005Z,6.14
2023-02-11T06:11:49.937Z,6.11
2023-02-11T06:12:48.930Z,6.22
2023-02-11T06:13:48.907Z,6.27
2023-02-11T06:14:48.868Z,6.22
2023-02-11T06:15:49.252Z,6.12
2023-02-11T06:16:48.784Z,6.19
2023-02-11T06:17:48.763Z,6.22
2023-02-11T06:18:48.713Z,6.20
2023-02-11T06:19:48.677Z,6.08
2023-02-11T06:20:48.732Z,6.09
2023-02-11T06:21:48.608Z,6.11
2023-02-11T06:22:48.576Z,6.11
2023-02-11T06:23:48.532Z,6.07
2023-02-11T06:25:00.758Z,6.11
2023-02-11T06:25:48.606Z,6.08
2023-02-11T06:26:48.489Z,6.11
2023-02-11T06:27:48.396Z,6.08
2023-02-11T06:28:48.356Z,6.16
2023-02-11T06:29:48.311Z,6.12
2023-02-11T06:30:48.492Z,6.12
2023-02-11T06:31:48.383Z,6.11
2023-02-11T06:32:48.323Z,6.22
2023-02-11T06:33:48.171Z,6.11
2023-02-11T06:34:48.134Z,6.26
2023-02-11T06:35:48.261Z,6.12
2023-02-11T06:36:48.117Z,6.11
2023-02-11T06:37:48.030Z,6.14
2023-02-11T06:38:47.988Z,6.02
2023-02-11T06:39:47.950Z,6.14
2023-02-11T06:40:47.930Z,6.16
2023-02-11T06:41:47.885Z,6.11
2023-02-11T06:42:47.910Z,6.12
2023-02-11T06:43:47.822Z,6.11
2023-02-11T06:44:47.778Z,6.09
2023-02-11T06:45:47.753Z,6.19
2023-02-11T06:46:47.773Z,6.14
2023-02-11T06:47:47.675Z,5.99
2023-02-11T06:48:47.680Z,6.04
2023-02-11T06:49:47.613Z,6.12
2023-02-11T06:50:47.559Z,6.11
2023-02-11T06:51:47.511Z,6.20
2023-02-11T06:52:47.482Z,6.24
2023-02-11T06:53:47.451Z,6.20
2023-02-11T06:54:47.469Z,6.19
2023-02-11T06:55:47.365Z,6.11
2023-02-11T06:56:47.343Z,6.19
2023-02-11T06:57:47.380Z,6.14
2023-02-11T06:58:47.260Z,6.26
2023-02-11T06:59:47.227Z,6.26
2023-02-11T07:00:47.276Z,6.26
2023-02-11T07:01:47.209Z,6.26
2023-02-11T07:02:47.195Z,6.26
2023-02-11T07:03:47.092Z,6.20
2023-02-11T07:04:47.052Z,6.28
2023-02-11T07:05:47.198Z,6.33
2023-02-11T07:06:47.027Z,6.31
2023-02-11T07:07:46.936Z,6.30
2023-02-11T07:08:46.900Z,6.36
2023-02-11T07:09:46.884Z,6.33
2023-02-11T07:10:46.825Z,6.42
2023-02-11T07:11:46.785Z,6.38
2023-02-11T07:12:46.811Z,6.44
2023-02-11T07:13:46.712Z,6.48
2023-02-11T07:14:46.688Z,6.35
2023-02-11T07:15:46.681Z,6.45
2023-02-11T07:16:46.598Z,6.52
2023-02-11T07:17:46.574Z,6.52
2023-02-11T07:18:46.598Z,6.52
2023-02-11T07:19:46.516Z,6.51
2023-02-11T07:20:46.457Z,6.62
2023-02-11T07:21:46.421Z,6.62
2023-02-11T07:22:46.391Z,6.64
2023-02-11T07:23:46.346Z,6.59
2023-02-11T07:24:46.386Z,6.60
2023-02-11T07:25:46.283Z,6.64
2023-02-11T07:26:46.240Z,6.69
2023-02-11T07:27:46.206Z,6.66
2023-02-11T07:28:46.176Z,6.75
2023-02-11T07:29:46.131Z,6.79
2023-02-11T07:30:46.174Z,6.81
2023-02-11T07:31:46.172Z,6.85
2023-02-11T07:32:46.029Z,6.85
2023-02-11T07:33:46.004Z,6.89
2023-02-11T07:34:46.069Z,6.84
2023-02-11T07:35:45.926Z,6.92
2023-02-11T07:36:45.943Z,6.95
2023-02-11T07:37:45.849Z,7.00
2023-02-11T07:38:45.805Z,7.07
2023-02-11T07:39:45.770Z,7.03
2023-02-11T07:40:45.737Z,7.13
2023-02-11T07:41:45.714Z,7.13
2023-02-11T07:42:45.735Z,7.14
2023-02-11T07:43:45.650Z,7.10
2023-02-11T07:44:46.068Z,7.23
2023-02-11T07:45:45.561Z,7.29
2023-02-11T07:46:45.603Z,7.33
2023-02-11T07:47:45.553Z,7.42
2023-02-11T07:48:45.443Z,7.43
2023-02-11T07:49:45.408Z,7.50
2023-02-11T07:50:45.377Z,7.43
2023-02-11T07:51:45.346Z,7.42
2023-02-11T07:52:45.361Z,7.43
2023-02-11T07:53:45.264Z,7.42
2023-02-11T07:54:45.240Z,7.43
2023-02-11T07:55:45.198Z,7.43
2023-02-11T07:56:45.194Z,7.45
2023-02-11T07:57:45.122Z,7.43
2023-02-11T07:58:45.156Z,7.42
2023-02-11T07:59:45.061Z,7.40
2023-02-11T08:00:45.039Z,7.32
2023-02-11T08:01:44.990Z,7.25
2023-02-11T08:02:44.961Z,7.25
2023-02-11T08:03:44.912Z,7.23
2023-02-11T08:04:44.930Z,7.24
2023-02-11T08:05:44.834Z,7.31
2023-02-11T08:06:44.811Z,7.23
2023-02-11T08:07:44.775Z,7.25
2023-02-11T08:08:44.744Z,7.25
2023-02-11T08:09:44.715Z,7.28
2023-02-11T08:10:44.706Z,7.23
2023-02-11T08:11:44.725Z,7.29
2023-02-11T08:12:44.593Z,7.32
2023-02-11T08:13:44.561Z,7.38
2023-02-11T08:14:44.526Z,7.36
2023-02-11T08:15:44.477Z,7.42
2023-02-11T08:16:44.552Z,7.40
2023-02-11T08:17:44.414Z,7.35
2023-02-11T08:18:44.371Z,7.47
2023-02-11T08:19:44.337Z,7.36
2023-02-11T08:20:44.304Z,7.40
2023-02-11T08:21:44.281Z,7.45
2023-02-11T08:22:44.289Z,7.43
2023-02-11T08:23:44.196Z,7.42
2023-02-11T08:24:44.169Z,7.45
2023-02-11T08:25:44.126Z,7.48
2023-02-11T08:26:44.090Z,7.39
2023-02-11T08:27:44.045Z,7.45
2023-02-11T08:28:44.081Z,7.53
2023-02-11T08:29:43.992Z,7.48
2023-02-11T08:30:43.984Z,7.50
2023-02-11T08:31:44.083Z,7.50
2023-02-11T08:32:43.867Z,7.56
2023-02-11T08:33:43.841Z,7.54
2023-02-11T08:34:43.868Z,7.58
2023-02-11T08:35:43.762Z,7.56
2023-02-11T08:36:43.725Z,7.50
2023-02-11T08:37:43.697Z,7.47
2023-02-11T08:38:43.663Z,7.50
2023-02-11T08:39:43.632Z,7.51
2023-02-11T08:40:43.644Z,7.48
2023-02-11T08:41:43.556Z,7.50
2023-02-11T08:42:43.516Z,7.58
2023-02-11T08:43:43.476Z,7.53
2023-02-11T08:44:43.443Z,7.43
2023-02-11T08:45:43.436Z,7.48
2023-02-11T08:46:43.430Z,7.50
2023-02-11T08:47:43.345Z,7.43
2023-02-11T08:48:44.211Z,7.42
2023-02-11T08:49:43.294Z,7.42
2023-02-11T08:50:43.223Z,7.39
2023-02-11T08:51:43.203Z,7.53
2023-02-11T08:52:43.220Z,7.47
2023-02-11T08:53:43.188Z,7.47
2023-02-11T08:54:43.092Z,7.45
2023-02-11T08:55:43.056Z,7.48
2023-02-11T08:56:43.027Z,7.47
2023-02-11T08:57:42.986Z,7.51
2023-02-11T08:58:43.008Z,7.53
2023-02-11T08:59:42.924Z,7.50
2023-02-11T09:00:42.889Z,7.50
2023-02-11T09:01:42.874Z,7.51
2023-02-11T09:02:42.862Z,7.58
2023-02-11T09:03:42.781Z,7.56
2023-02-11T09:04:42.792Z,7.53
2023-02-11T09:05:42.712Z,7.66
2023-02-11T09:06:42.670Z,7.54
2023-02-11T09:07:42.631Z,7.61
2023-02-11T09:08:45.331Z,7.56
2023-02-11T09:09:42.618Z,7.61
2023-02-11T09:10:42.521Z,7.73
2023-02-11T09:11:42.478Z,7.56
2023-02-11T09:12:42.459Z,7.60
2023-02-11T09:13:42.424Z,7.63
2023-02-11T09:14:42.386Z,7.63
2023-02-11T09:15:42.402Z,7.67
2023-02-11T09:16:42.392Z,7.66
2023-02-11T09:17:42.277Z,7.66
2023-02-11T09:18:42.240Z,7.67
2023-02-11T09:19:42.209Z,7.58
2023-02-11T09:20:42.248Z,7.70
2023-02-11T09:21:42.130Z,7.63
2023-02-11T09:22:42.099Z,7.70
2023-02-11T09:23:42.058Z,7.70
2023-02-11T09:24:42.049Z,7.72
2023-02-11T09:25:42.001Z,7.72
2023-02-11T09:26:42.019Z,7.72
2023-02-11T09:27:41.935Z,7.82
2023-02-11T09:28:41.885Z,7.82
2023-02-11T09:29:41.858Z,7.79
2023-02-11T09:30:41.938Z,7.77
2023-02-11T09:31:42.006Z,7.79
2023-02-11T09:32:41.813Z,7.79
2023-02-11T09:33:41.855Z,7.80
2023-02-11T09:34:41.713Z,7.87
2023-02-11T09:35:41.636Z,7.85
2023-02-11T09:36:41.631Z,7.94
2023-02-11T09:37:41.574Z,7.95
2023-02-11T09:38:41.600Z,7.97
2023-02-11T09:39:42.614Z,7.97
2023-02-11T09:40:41.482Z,7.97
2023-02-11T09:41:41.520Z,8.01
2023-02-11T09:42:41.392Z,8.09
2023-02-11T09:43:41.386Z,7.98
2023-02-11T09:44:41.389Z,8.12
2023-02-11T09:45:41.309Z,8.13
2023-02-11T09:46:41.258Z,8.09
2023-02-11T09:47:41.221Z,8.03
2023-02-11T09:48:41.176Z,8.10
2023-02-11T09:49:41.147Z,8.08
2023-02-11T09:50:41.169Z,7.98
2023-02-11T09:51:41.082Z,8.05
2023-02-11T09:52:41.051Z,8.00
2023-02-11T09:53:41.020Z,8.01
2023-02-11T09:54:40.977Z,8.03
2023-02-11T09:55:40.936Z,8.01
2023-02-11T09:56:40.977Z,8.00
2023-02-11T09:57:40.874Z,8.00
2023-02-11T09:58:40.834Z,8.09
2023-02-11T09:59:40.810Z,8.09
2023-02-11T10:00:40.765Z,7.98
2023-02-11T10:01:40.782Z,8.06
2023-02-11T10:02:40.750Z,8.03
2023-02-11T10:03:40.676Z,8.13
2023-02-11T10:04:40.719Z,8.12
2023-02-11T10:05:41.131Z,8.27
2023-02-11T10:06:40.557Z,8.19
2023-02-11T10:07:40.580Z,8.34
2023-02-11T10:08:40.553Z,8.37
2023-02-11T10:09:40.450Z,8.33
2023-02-11T10:10:40.432Z,8.34
2023-02-11T10:11:40.394Z,8.26
2023-02-11T10:12:40.342Z,8.26
2023-02-11T10:13:42.544Z,8.30
2023-02-11T10:14:40.277Z,8.28
2023-02-11T10:15:40.300Z,8.33
2023-02-11T10:16:40.211Z,8.31
2023-02-11T10:17:40.210Z,8.30
2023-02-11T10:18:40.141Z,8.34
2023-02-11T10:19:40.206Z,8.33
2023-02-11T10:20:40.074Z,8.30
2023-02-11T10:21:40.038Z,8.28
2023-02-11T10:22:39.992Z,8.33
2023-02-11T10:23:39.970Z,8.33
2023-02-11T10:24:39.935Z,8.28
2023-02-11T10:25:40.017Z,8.34
2023-02-11T10:26:39.855Z,8.37
2023-02-11T10:27:39.818Z,8.28
2023-02-11T10:28:39.866Z,8.30
2023-02-11T10:29:39.750Z,8.27
2023-02-11T10:30:39.789Z,8.27
2023-02-11T10:31:39.844Z,8.23
2023-02-11T10:32:40.044Z,8.20
2023-02-11T10:33:39.666Z,8.16
2023-02-11T10:34:39.629Z,8.12
2023-02-11T10:35:39.548Z,8.09
2023-02-11T10:36:39.514Z,8.19
2023-02-11T10:37:39.646Z,8.13
2023-02-11T10:38:39.447Z,8.12
2023-02-11T10:39:39.436Z,8.09
2023-02-11T10:40:39.383Z,8.08
2023-02-11T10:41:39.347Z,8.08
2023-02-11T10:42:39.306Z,8.09
2023-02-11T10:43:39.309Z,8.06
2023-02-11T10:44:39.251Z,8.00
2023-02-11T10:45:39.217Z,7.98
2023-02-11T10:46:39.262Z,7.95
2023-02-11T10:47:39.130Z,8.00
2023-02-11T10:48:39.168Z,8.05
2023-02-11T10:49:39.156Z,8.01
2023-02-11T10:50:39.027Z,8.05
2023-02-11T10:51:38.993Z,8.06
2023-02-11T10:52:38.964Z,8.00
2023-02-11T10:53:38.921Z,8.01
2023-02-11T10:54:38.952Z,8.09
2023-02-11T10:55:38.956Z,8.19
2023-02-11T10:56:38.838Z,8.12
2023-02-11T10:57:38.816Z,8.05
2023-02-11T10:58:38.756Z,8.12
2023-02-11T10:59:38.726Z,8.19
2023-02-11T11:00:38.681Z,8.12
2023-02-11T11:01:38.737Z,8.12
2023-02-11T11:02:38.612Z,8.13
2023-02-11T11:03:38.581Z,8.10
2023-02-11T11:04:38.601Z,8.13
2023-02-11T11:05:38.508Z,8.08
2023-02-11T11:06:38.475Z,8.09
2023-02-11T11:07:38.808Z,8.12
2023-02-11T11:08:38.404Z,8.08
2023-02-11T11:09:38.370Z,8.16
2023-02-11T11:10:38.330Z,8.09
2023-02-11T11:11:38.298Z,8.09
2023-02-11T11:12:40.367Z,8.05
2023-02-11T11:13:38.282Z,8.12
2023-02-11T11:14:38.773Z,8.10
2023-02-11T11:15:38.404Z,8.09
2023-02-11T11:16:38.164Z,8.12
2023-02-11T11:17:38.137Z,8.13
2023-02-11T11:18:38.218Z,8.03
2023-02-11T11:19:38.057Z,8.06
2023-02-11T11:20:38.038Z,8.09
2023-02-11T11:21:37.968Z,8.10
2023-02-11T11:22:37.952Z,8.15
2023-02-11T11:23:37.965Z,8.13
2023-02-11T11:24:37.911Z,8.13
2023-02-11T11:25:37.820Z,8.10
2023-02-11T11:26:37.868Z,8.12
2023-02-11T11:27:37.768Z,8.12
2023-02-11T11:28:37.755Z,8.09
2023-02-11T11:29:37.669Z,8.06
2023-02-11T11:30:37.739Z,8.10
2023-02-11T11:31:37.760Z,8.13
2023-02-11T11:32:37.590Z,8.18
2023-02-11T11:33:37.564Z,8.12
2023-02-11T11:34:37.517Z,8.15
2023-02-11T11:35:37.860Z,8.13
2023-02-11T11:36:37.517Z,8.12
2023-02-11T11:37:37.418Z,8.06
2023-02-11T11:38:37.360Z,8.05
2023-02-11T11:39:37.332Z,8.16
2023-02-11T11:40:37.282Z,8.20
2023-02-11T11:41:37.391Z,8.23
2023-02-11T11:42:37.282Z,8.18
2023-02-11T11:43:37.195Z,8.16
2023-02-11T11:44:37.171Z,8.15
2023-02-11T11:45:37.107Z,8.23
2023-02-11T11:46:37.282Z,8.20
2023-02-11T11:47:37.038Z,8.26
2023-02-11T11:48:37.012Z,8.28
2023-02-11T11:49:37.025Z,8.23
2023-02-11T11:50:36.953Z,8.33
2023-02-11T11:51:36.916Z,8.24
2023-02-11T11:52:36.933Z,8.24
2023-02-11T11:53:36.845Z,8.27
2023-02-11T11:54:36.816Z,8.33
2023-02-11T11:55:36.757Z,8.34
2023-02-11T11:56:36.720Z,8.34
2023-02-11T11:57:36.755Z,8.37
2023-02-11T11:58:36.658Z,8.26
2023-02-11T11:59:36.643Z,8.33
2023-02-11T12:00:36.589Z,8.26
2023-02-11T12:01:36.648Z,8.30
2023-02-11T12:02:36.540Z,8.37
2023-02-11T12:03:36.568Z,8.31
2023-02-11T12:04:36.463Z,8.36
2023-02-11T12:05:36.411Z,8.28
2023-02-11T12:06:36.425Z,8.33
2023-02-11T12:07:36.385Z,8.36
2023-02-11T12:08:36.312Z,8.31
2023-02-11T12:09:36.336Z,8.30
2023-02-11T12:10:36.259Z,8.34
2023-02-11T12:11:36.210Z,8.44
2023-02-11T12:12:36.173Z,8.34
2023-02-11T12:13:36.163Z,8.46
2023-02-11T12:14:36.100Z,8.37
2023-02-11T12:15:36.146Z,8.36
2023-02-11T12:16:36.124Z,8.58
2023-02-11T12:17:36.080Z,8.56
2023-02-11T12:18:36.005Z,8.58
2023-02-11T12:19:35.947Z,8.53
2023-02-11T12:20:35.926Z,8.64
2023-02-11T12:21:35.863Z,8.53
2023-02-11T12:22:35.888Z,8.61
2023-02-11T12:23:35.791Z,8.67
2023-02-11T12:24:35.750Z,8.58
2023-02-11T12:25:35.770Z,8.64
2023-02-11T12:26:35.708Z,8.64
2023-02-11T12:27:35.746Z,8.70
2023-02-11T12:28:35.675Z,8.70
2023-02-11T12:29:35.579Z,8.71
2023-02-11T12:30:35.560Z,8.69
2023-02-11T12:31:35.618Z,8.70
2023-02-11T12:32:35.486Z,8.85
2023-02-11T12:33:35.517Z,8.85
2023-02-11T12:34:35.425Z,8.87
2023-02-11T12:35:35.418Z,8.82
2023-02-11T12:36:35.360Z,8.81
2023-02-11T12:37:35.306Z,8.92
2023-02-11T12:38:35.276Z,8.95
2023-02-11T12:39:35.317Z,8.97
2023-02-11T12:40:35.218Z,8.99
2023-02-11T12:41:35.196Z,9.02
2023-02-11T12:42:35.120Z,9.10
2023-02-11T12:43:35.105Z,9.25
2023-02-11T12:44:35.077Z,9.18
2023-02-11T12:45:35.180Z,9.16
2023-02-11T12:46:35.029Z,9.18
2023-02-11T12:47:34.972Z,9.14
2023-02-11T12:48:35.864Z,9.08
2023-02-11T12:49:34.893Z,9.19
2023-02-11T12:50:34.929Z,9.18
2023-02-11T12:51:34.822Z,9.19
2023-02-11T12:52:34.801Z,9.21
2023-02-11T12:53:34.784Z,9.25
2023-02-11T12:54:34.736Z,9.28
2023-02-11T12:55:34.758Z,9.29
2023-02-11T12:56:34.662Z,9.23
2023-02-11T12:57:34.610Z,9.21
2023-02-11T12:58:44.498Z,9.26
2023-02-11T12:59:34.608Z,9.31
2023-02-11T13:00:34.537Z,9.25
2023-02-11T13:01:34.564Z,9.29
2023-02-11T13:02:34.540Z,9.25
2023-02-11T13:03:34.401Z,9.32
2023-02-11T13:04:34.427Z,9.21
2023-02-11T13:05:34.359Z,9.26
2023-02-11T13:06:34.317Z,9.25
2023-02-11T13:07:34.269Z,9.23
2023-02-11T13:08:34.244Z,9.29
2023-02-11T13:09:34.210Z,9.26
2023-02-11T13:10:34.282Z,9.23
2023-02-11T13:11:34.155Z,9.26
2023-02-11T13:12:34.111Z,9.22
2023-02-11T13:13:34.084Z,9.23
2023-02-11T13:14:34.032Z,9.22
2023-02-11T13:15:34.021Z,9.25
2023-02-11T13:16:34.097Z,9.23
2023-02-11T13:17:33.940Z,9.31